createdAt,value
2018-09-24T00:02:16.064Z,99053.46
2018-09-24T00:04:44.636Z,99078.66
2018-09-24T00:07:13.249Z,99091.97
2018-09-24T00:09:42.004Z,99123.84
2018-09-24T00:12:10.553Z,99099.12
2018-09-24T00:14:39.262Z,99111.14
2018-09-24T00:17:09.269Z,99119.81
2018-09-24T00:19:37.988Z,99182.73
2018-09-24T00:22:06.792Z,99161.98
2018-09-24T00:24:35.506Z,99189.95
2018-09-24T00:27:04.088Z,99182.09
2018-09-24T00:29:33.537Z,99219.78
2018-09-24T00:32:02.213Z,99216.13
2018-09-24T00:34:30.927Z,99243.60
2018-09-24T00:37:00.488Z,99242.81
2018-09-24T00:39:29.188Z,99269.51
2018-09-24T00:41:57.772Z,99305.56
2018-09-24T00:44:26.398Z,99313.96
2018-09-24T00:46:56.092Z,99329.62
2018-09-24T00:49:24.627Z,99334.42
2018-09-24T00:51:53.192Z,99338.31
2018-09-24T00:54:22.348Z,99357.12
2018-09-24T00:56:51.898Z,99361.92
2018-09-24T00:59:21.425Z,99365.35
2018-09-24T01:01:51.397Z,99402.25
2018-09-24T01:04:19.898Z,99438.23
2018-09-24T01:06:49.043Z,99398.36
2018-09-24T01:09:17.896Z,99395.27
2018-09-24T01:11:46.650Z,99412.38
2018-09-24T01:14:15.168Z,99410.66
2018-09-24T01:16:44.064Z,99402.83
2018-09-24T01:19:12.752Z,99411.05
2018-09-24T01:21:41.357Z,99416.72
2018-09-24T01:24:10.063Z,99419.34
2018-09-24T01:26:38.793Z,99427.24
2018-09-24T01:29:07.399Z,99418.16
2018-09-24T01:31:38.353Z,99421.58
2018-09-24T01:34:07.010Z,99461.05
2018-09-24T01:36:35.518Z,99431.13
2018-09-24T01:39:04.420Z,99437.65
2018-09-24T01:41:33.037Z,99458.23
2018-09-24T01:44:01.509Z,99462.03
2018-09-24T01:46:30.267Z,99476.50
2018-09-24T01:48:58.781Z,99467.70
2018-09-24T01:51:35.020Z,99481.71
2018-09-24T01:54:04.276Z,99493.03
2018-09-24T01:56:36.802Z,99482.45
2018-09-24T01:59:05.497Z,99493.83
2018-09-24T02:01:34.118Z,99506.13
2018-09-24T02:04:02.871Z,99504.76
2018-09-24T02:06:31.427Z,99510.02
2018-09-24T02:08:59.935Z,99534.11
2018-09-24T02:11:28.663Z,99528.84
2018-09-24T02:13:57.528Z,99550.81
2018-09-24T02:16:26.163Z,99553.79
2018-09-24T02:18:59.571Z,99549.90
2018-09-24T02:21:28.556Z,99564.31
2018-09-24T02:24:02.215Z,99560.83
2018-09-24T02:26:30.700Z,99558.66
2018-09-24T02:28:59.359Z,99570.50
2018-09-24T02:31:28.129Z,99577.08
2018-09-24T02:33:56.674Z,99570.04
2018-09-24T02:36:25.203Z,99574.90
2018-09-24T02:38:53.862Z,99588.34
2018-09-24T02:41:22.326Z,99586.97
2018-09-24T02:43:50.848Z,99598.36
2018-09-24T02:46:19.635Z,99592.03
2018-09-24T02:48:49.184Z,99588.48
2018-09-24T02:51:18.224Z,99601.53
2018-09-24T02:53:46.777Z,99605.34
2018-09-24T02:56:15.396Z,99601.58
2018-09-24T02:58:43.856Z,99618.58
2018-09-24T03:01:12.459Z,99626.81
2018-09-24T03:03:41.032Z,99609.25
2018-09-24T03:06:09.567Z,99629.28
2018-09-24T03:08:40.699Z,99625.21
2018-09-24T03:11:09.201Z,99624.41
2018-09-24T03:13:37.756Z,99636.72
2018-09-24T03:16:07.504Z,99642.05
2018-09-24T03:18:37.044Z,99639.81
2018-09-24T03:21:05.594Z,99641.13
2018-09-24T03:23:34.834Z,99664.31
2018-09-24T03:26:03.493Z,99646.28
2018-09-24T03:28:32.098Z,99658.93
2018-09-24T03:31:00.686Z,99647.59
2018-09-24T03:33:29.301Z,99672.01
2018-09-24T03:35:57.815Z,99677.67
2018-09-24T03:38:26.438Z,99680.25
2018-09-24T03:40:54.968Z,99687.64
2018-09-24T03:43:23.540Z,99683.97
2018-09-24T03:45:52.089Z,99689.19
2018-09-24T03:48:20.644Z,99682.54
2018-09-24T03:50:49.214Z,99698.34
2018-09-24T03:53:17.832Z,99703.21
2018-09-24T03:55:46.351Z,99703.73
2018-09-24T03:58:15.068Z,99703.70
2018-09-24T04:00:43.740Z,99697.34
2018-09-24T04:03:12.345Z,99704.33
2018-09-24T04:05:46.313Z,99703.70
2018-09-24T04:08:21.157Z,99708.77
2018-09-24T04:10:55.078Z,99710.94
2018-09-24T04:13:32.034Z,99711.11
2018-09-24T04:16:06.191Z,99712.83
2018-09-24T04:18:39.935Z,99729.04
2018-09-24T04:21:13.844Z,99723.11
2018-09-24T04:23:47.652Z,99730.38
2018-09-24T04:26:21.651Z,99715.43
2018-09-24T04:28:55.393Z,99728.09
2018-09-24T04:31:29.257Z,99717.61
2018-09-24T04:34:03.123Z,99714.73
2018-09-24T04:36:38.162Z,99725.22
2018-09-24T04:39:14.540Z,99740.88
2018-09-24T04:41:48.642Z,99735.76
2018-09-24T04:44:23.184Z,99749.34
2018-09-24T04:46:57.241Z,99739.16
2018-09-24T04:49:31.075Z,99740.88
2018-09-24T04:52:05.168Z,99745.75
2018-09-24T04:54:39.281Z,99749.64
2018-09-24T04:57:14.151Z,99773.77
2018-09-24T04:59:47.933Z,99749.64
2018-09-24T05:02:22.037Z,99801.78
2018-09-24T05:04:55.717Z,99760.88
2018-09-24T05:07:29.800Z,99753.36
2018-09-24T05:10:03.771Z,99799.03
2018-09-24T05:12:37.507Z,99774.11
2018-09-24T05:15:11.521Z,99773.25
2018-09-24T05:17:46.502Z,99784.99
2018-09-24T05:20:20.453Z,99772.73
2018-09-24T05:22:55.561Z,99791.58
2018-09-24T05:25:29.398Z,99794.62
2018-09-24T05:28:03.480Z,99807.28
2018-09-24T05:30:37.185Z,99813.06
2018-09-24T05:33:11.165Z,99807.85
2018-09-24T05:35:44.892Z,99804.76
2018-09-24T05:38:18.740Z,99817.02
2018-09-24T05:40:52.616Z,99803.78
2018-09-24T05:43:26.423Z,99807.69
2018-09-24T05:46:00.222Z,99807.16
2018-09-24T05:48:34.709Z,99825.22
2018-09-24T05:51:08.486Z,99811.83
2018-09-24T05:53:42.316Z,99817.50
2018-09-24T05:56:16.309Z,99825.81
2018-09-24T05:58:50.195Z,99826.67
2018-09-24T06:01:23.953Z,99846.33
2018-09-24T06:03:57.822Z,99848.85
2018-09-24T06:06:31.758Z,99846.10
2018-09-24T06:09:05.666Z,99853.50
2018-09-24T06:11:39.551Z,99864.30
2018-09-24T06:14:13.359Z,99866.02
2018-09-24T06:16:47.059Z,99894.50
2018-09-24T06:19:20.817Z,99902.30
2018-09-24T06:21:54.733Z,99918.53
2018-09-24T06:24:28.877Z,99911.42
2018-09-24T06:27:03.649Z,99897.26
2018-09-24T06:29:38.581Z,99907.70
2018-09-24T06:32:12.562Z,99927.94
2018-09-24T06:34:46.372Z,99915.11
2018-09-24T06:37:20.349Z,99922.57
2018-09-24T06:39:54.270Z,99926.88
2018-09-24T06:42:28.076Z,99930.25
2018-09-24T06:45:01.837Z,99944.19
2018-09-24T06:47:35.837Z,99954.63
2018-09-24T06:50:09.757Z,99965.98
2018-09-24T06:52:43.622Z,99952.25
2018-09-24T06:55:17.389Z,99972.84
2018-09-24T06:57:51.763Z,99992.80
2018-09-24T07:00:26.686Z,99985.63
2018-09-24T07:03:00.557Z,99989.84
2018-09-24T07:05:35.721Z,100005.11
2018-09-24T07:08:09.566Z,99990.82
2018-09-24T07:10:43.397Z,99995.41
2018-09-24T07:13:17.281Z,99996.47
2018-09-24T07:15:51.685Z,100009.43
2018-09-24T07:18:25.513Z,100009.43
2018-09-24T07:20:59.596Z,100034.17
2018-09-24T07:23:33.432Z,100031.47
2018-09-24T07:26:07.295Z,100024.01
2018-09-24T07:28:41.137Z,100037.20
2018-09-24T07:31:15.074Z,100025.33
2018-09-24T07:33:48.698Z,100033.70
2018-09-24T07:36:22.520Z,100045.02
2018-09-24T07:38:56.411Z,100040.33
2018-09-24T07:41:30.305Z,100089.98
2018-09-24T07:44:04.320Z,100072.70
2018-09-24T07:46:38.591Z,100079.97
2018-09-24T07:49:12.385Z,100064.27
2018-09-24T07:51:46.355Z,100087.43
2018-09-24T07:54:21.100Z,100069.95
2018-09-24T07:56:55.357Z,100084.84
2018-09-24T07:59:29.191Z,100096.81
2018-09-24T08:02:02.982Z,100083.56
2018-09-24T08:04:36.740Z,100089.34
2018-09-24T08:07:10.622Z,100121.67
2018-09-24T08:09:44.532Z,100125.06
2018-09-24T08:12:18.488Z,100116.16
2018-09-24T08:14:52.498Z,100119.19
2018-09-24T08:17:26.755Z,100131.92
2018-09-24T08:20:00.707Z,100137.06
2018-09-24T08:22:34.517Z,100131.21
2018-09-24T08:25:08.507Z,100142.98
2018-09-24T08:27:42.351Z,100142.06
2018-09-24T08:30:16.188Z,100122.54
2018-09-24T08:32:49.985Z,100171.16
2018-09-24T08:35:24.732Z,100157.72
2018-09-24T08:37:58.472Z,100159.05
2018-09-24T08:40:32.322Z,100155.48
2018-09-24T08:43:06.348Z,100178.84
2018-09-24T08:45:40.248Z,100173.78
2018-09-24T08:48:14.084Z,100183.43
2018-09-24T08:50:48.073Z,100189.11
2018-09-24T08:53:21.923Z,100192.16
2018-09-24T08:55:55.602Z,100190.11
2018-09-24T08:58:29.572Z,100185.75
2018-09-24T09:01:04.051Z,100210.56
2018-09-24T09:03:38.062Z,100190.47
2018-09-24T09:06:12.208Z,100193.55
2018-09-24T09:08:45.990Z,100214.17
2018-09-24T09:11:19.801Z,100191.71
2018-09-24T09:13:53.775Z,100219.63
2018-09-24T09:16:28.674Z,100203.78
2018-09-24T09:19:03.772Z,100228.52
2018-09-24T09:21:37.597Z,100233.14
2018-09-24T09:24:11.411Z,100206.23
2018-09-24T09:26:46.132Z,100196.42
2018-09-24T09:29:23.935Z,100215.48
2018-09-24T09:31:57.765Z,100215.78
2018-09-24T09:34:31.520Z,100224.78
2018-09-24T09:37:06.710Z,100229.55
2018-09-24T09:39:40.388Z,100259.14
2018-09-24T09:42:16.033Z,100232.86
2018-09-24T09:44:49.860Z,100253.38
2018-09-24T09:47:24.586Z,100242.02
2018-09-24T09:49:58.866Z,100226.59
2018-09-24T09:52:32.805Z,100244.89
2018-09-24T09:55:06.756Z,100249.54
2018-09-24T09:57:41.197Z,100238.84
2018-09-24T10:00:14.982Z,100251.66
2018-09-24T10:02:48.976Z,100249.52
2018-09-24T10:05:22.747Z,100239.31
2018-09-24T11:18:35.694Z,100278.87
2018-09-24T11:21:09.485Z,100269.58
2018-09-24T11:23:43.393Z,100280.30
2018-09-24T11:28:54.642Z,100283.89
2018-09-24T11:31:28.445Z,100335.55
2018-09-24T11:34:02.380Z,100338.56
2018-09-24T11:36:36.269Z,100299.83
2018-09-24T11:39:12.453Z,100288.05
2018-09-24T11:41:47.805Z,100273.73
2018-09-24T11:44:21.794Z,100251.83
2018-09-24T11:46:55.902Z,100256.92
2018-09-24T11:49:30.018Z,100247.34
2018-09-24T11:52:03.888Z,100280.32
2018-09-24T11:54:37.757Z,100262.86
2018-09-24T11:57:11.501Z,100266.50
2018-09-24T11:59:45.368Z,100271.09
2018-09-24T12:02:20.314Z,100295.48
2018-09-24T12:04:54.424Z,100276.95
2018-09-24T12:07:28.200Z,100282.11
2018-09-24T12:10:01.981Z,100289.64
2018-09-24T12:12:35.792Z,100274.61
2018-09-24T12:15:09.505Z,100259.61
2018-09-24T12:17:43.479Z,100273.77
2018-09-24T12:20:17.324Z,100299.13
2018-09-24T12:22:51.381Z,100290.75
2018-09-24T12:25:25.288Z,100283.74
2018-09-24T12:27:59.160Z,100271.69
2018-09-24T12:30:32.863Z,100283.55
2018-09-24T12:33:06.879Z,100273.06
2018-09-24T12:35:40.588Z,100287.83
2018-09-24T12:38:14.493Z,100301.94
2018-09-24T12:40:48.232Z,100321.01
2018-09-24T12:43:22.203Z,100309.35
2018-09-24T12:45:55.934Z,100346.27
2018-09-24T12:48:29.772Z,100289.55
2018-09-24T12:51:03.673Z,100303.27
2018-09-24T12:53:37.654Z,100311.06
2018-09-24T12:56:11.599Z,100297.00
2018-09-24T12:58:45.508Z,100306.33
2018-09-24T13:01:19.416Z,100340.39
2018-09-24T13:03:53.233Z,100292.23
2018-09-24T13:06:26.992Z,100325.41
2018-09-24T13:09:00.740Z,100320.59
2018-09-24T13:11:34.884Z,100344.69
2018-09-24T13:14:08.694Z,100313.03
2018-09-24T13:16:42.515Z,100288.81
2018-09-24T13:19:16.209Z,100305.26
2018-09-24T13:21:49.950Z,100301.25
2018-09-24T13:24:23.598Z,100331.72
2018-09-24T13:26:57.545Z,100339.42
2018-09-24T13:29:31.351Z,100346.65
2018-09-24T13:32:06.285Z,100330.86
2018-09-24T13:34:41.119Z,100325.90
2018-09-24T13:37:14.989Z,100339.59
2018-09-24T13:39:49.671Z,100311.25
2018-09-24T13:42:24.092Z,100303.55
2018-09-24T13:44:57.879Z,100318.17
2018-09-24T13:47:31.892Z,100359.96
2018-09-24T13:50:05.657Z,100350.43
2018-09-24T13:52:39.576Z,100320.83
2018-09-24T13:55:13.561Z,100345.29
2018-09-24T13:57:47.452Z,100320.07
2018-09-24T14:00:21.420Z,100335.23
2018-09-24T14:02:55.369Z,100355.06
2018-09-24T14:05:29.316Z,100350.52
2018-09-24T14:08:03.397Z,100381.59
2018-09-24T14:10:37.328Z,100340.06
2018-09-24T14:13:11.311Z,100349.34
2018-09-24T14:15:45.578Z,100395.31
2018-09-24T14:18:19.529Z,100468.66
2018-09-24T14:20:53.412Z,100519.88
2018-09-24T14:23:27.578Z,100496.28
2018-09-24T14:26:01.323Z,100497.38
2018-09-24T14:28:35.429Z,100467.88
2018-09-24T14:31:09.377Z,100481.23
2018-09-24T14:33:43.408Z,100487.76
2018-09-24T14:36:17.281Z,100485.33
2018-09-24T14:38:51.448Z,100502.52
2018-09-24T14:41:25.497Z,100511.42
2018-09-24T14:43:59.180Z,100509.72
2018-09-24T14:46:32.872Z,100485.20
2018-09-24T14:49:06.694Z,100468.05
2018-09-24T14:51:40.656Z,100463.61
2018-09-24T14:54:14.618Z,100463.55
2018-09-24T14:56:48.441Z,100457.61
2018-09-24T14:59:22.695Z,100458.64
2018-09-24T15:01:56.460Z,100472.42
2018-09-24T15:04:30.383Z,100448.95
2018-09-24T15:07:04.346Z,100457.53
2018-09-24T15:09:38.376Z,100478.63
2018-09-24T15:12:12.810Z,100499.31
2018-09-24T15:14:46.582Z,100499.36
2018-09-24T15:17:20.412Z,100529.30
2018-09-24T15:19:54.295Z,100524.70
2018-09-24T15:22:28.462Z,100527.68
2018-09-24T15:25:02.431Z,100532.31
2018-09-24T15:27:36.397Z,100531.83
2018-09-24T15:30:10.640Z,100531.78
2018-09-24T15:32:44.425Z,100515.78
2018-09-24T15:35:18.313Z,100522.30
2018-09-24T15:37:52.163Z,100513.78
2018-09-24T15:40:26.989Z,100496.88
2018-09-24T15:43:00.915Z,100513.31
2018-09-24T15:45:34.766Z,100511.30
2018-09-24T15:48:08.610Z,100506.14
2018-09-24T15:50:42.662Z,100517.42
2018-09-24T15:53:16.497Z,100504.12
2018-09-24T15:55:50.317Z,100517.33
2018-09-24T15:58:24.280Z,100510.97
2018-09-24T16:00:58.149Z,100509.80
2018-09-24T16:03:32.096Z,100536.84
2018-09-24T16:06:06.110Z,100519.67
2018-09-24T16:08:40.004Z,100546.42
2018-09-24T16:11:14.819Z,100538.99
2018-09-24T16:13:49.657Z,100535.97
2018-09-24T16:16:24.467Z,100537.25
2018-09-24T16:18:58.177Z,100552.55
2018-09-24T16:21:32.028Z,100538.42
2018-09-24T16:24:05.908Z,100535.73
2018-09-24T16:26:39.925Z,100540.41
2018-09-24T16:29:13.901Z,100550.34
2018-09-24T16:31:47.738Z,100536.97
2018-09-24T16:34:21.583Z,100540.29
2018-09-24T16:36:55.314Z,100549.40
2018-09-24T16:39:29.208Z,100554.89
2018-09-24T16:42:03.225Z,100558.57
2018-09-24T16:44:37.073Z,100564.89
2018-09-24T16:47:11.277Z,100558.30
2018-09-24T16:49:45.101Z,100557.98
2018-09-24T16:52:18.994Z,100560.34
2018-09-24T16:54:53.816Z,100570.47
2018-09-24T16:57:27.921Z,100585.02
2018-09-24T17:00:02.401Z,100587.34
2018-09-24T17:02:36.332Z,100574.69
2018-09-24T17:05:11.013Z,100603.66
2018-09-24T17:07:45.119Z,100615.09
2018-09-24T17:10:18.995Z,100617.38
2018-09-24T17:12:52.890Z,100631.50
2018-09-24T17:15:26.706Z,100633.23
2018-09-24T17:18:00.690Z,100671.30
2018-09-24T17:20:34.448Z,100652.34
2018-09-24T17:23:08.298Z,100653.50
2018-09-24T17:25:43.181Z,100669.66
2018-09-24T17:28:18.297Z,100694.97
2018-09-24T17:30:54.443Z,100711.45
2018-09-24T17:33:28.482Z,100712.63
2018-09-24T17:36:02.197Z,100712.98
2018-09-24T17:38:36.112Z,100701.42
2018-09-24T17:41:09.953Z,100714.83
2018-09-24T17:43:43.954Z,100715.06
2018-09-24T17:46:19.428Z,100715.17
2018-09-24T17:48:53.367Z,100718.34
2018-09-24T17:51:27.315Z,100707.45
2018-09-24T17:54:01.101Z,100712.34
2018-09-24T17:56:34.931Z,100719.45
2018-09-24T17:59:08.767Z,100724.48
2018-09-24T18:01:42.522Z,100719.32
2018-09-24T18:04:16.429Z,100724.29
2018-09-24T18:06:50.292Z,100727.94
2018-09-24T18:09:24.225Z,100728.56
2018-09-24T18:11:59.170Z,100729.13
2018-09-24T18:14:33.110Z,100728.42
2018-09-24T18:17:06.981Z,100734.30
2018-09-24T18:19:40.831Z,100730.98
2018-09-24T18:22:14.730Z,100731.57
2018-09-24T18:24:48.407Z,100738.35
2018-09-24T18:27:22.260Z,100738.06
2018-09-24T18:29:56.172Z,100740.81
2018-09-24T18:32:30.375Z,100746.58
2018-09-24T18:35:04.235Z,100747.58
2018-09-24T18:37:38.139Z,100746.32
2018-09-24T18:40:12.128Z,100746.39
2018-09-24T18:42:46.202Z,100747.70
2018-09-24T18:45:20.421Z,100749.11
2018-09-24T18:47:54.315Z,100757.00
2018-09-24T18:50:29.276Z,100754.41
2018-09-24T18:53:03.166Z,100760.56
2018-09-24T18:55:36.995Z,100760.16
2018-09-24T18:58:10.899Z,100762.75
2018-09-24T19:00:44.764Z,100759.26
2018-09-24T19:03:18.771Z,100761.90
2018-09-24T19:05:54.616Z,100760.22
2018-09-24T19:08:30.549Z,100752.78
2018-09-24T19:11:04.673Z,100759.78
2018-09-24T19:13:38.677Z,100757.16
2018-09-24T19:16:12.752Z,100756.30
2018-09-24T19:18:47.007Z,100758.84
2018-09-24T19:21:20.896Z,100754.52
2018-09-24T19:23:54.994Z,100756.30
2018-09-24T19:26:29.225Z,100760.28
2018-09-24T19:29:03.143Z,100765.98
2018-09-24T19:31:37.189Z,100769.49
2018-09-24T19:34:11.052Z,100771.22
2018-09-24T19:36:47.153Z,100774.25
2018-09-24T19:39:20.952Z,100779.91
2018-09-24T19:41:55.484Z,100772.06
2018-09-24T19:44:29.573Z,100776.02
2018-09-24T19:47:03.595Z,100776.48
2018-09-24T19:49:37.522Z,100786.11
2018-09-24T19:52:11.685Z,100806.22
2018-09-24T19:54:45.790Z,100802.34
2018-09-24T19:57:20.499Z,100806.75
2018-09-24T19:59:54.396Z,100802.84
2018-09-24T20:02:28.258Z,100815.48
2018-09-24T20:05:02.277Z,100816.77
2018-09-24T20:07:36.366Z,100818.47
2018-09-24T20:10:10.424Z,100815.85
2018-09-24T20:12:44.523Z,100825.03
2018-09-24T20:15:18.531Z,100831.14
2018-09-24T20:17:53.453Z,100832.05
2018-09-24T20:20:28.284Z,100835.94
2018-09-24T20:23:02.406Z,100849.02
2018-09-24T20:25:36.443Z,100846.34
2018-09-24T20:28:10.446Z,100846.69
2018-09-24T20:30:44.216Z,100839.19
2018-09-24T20:33:18.443Z,100851.28
2018-09-24T20:35:52.230Z,100855.64
2018-09-24T20:38:26.253Z,100870.06
2018-09-24T20:41:00.025Z,100853.36
2018-09-24T20:43:34.097Z,100856.91
2018-09-24T20:46:07.962Z,100864.37
2018-09-24T20:48:42.107Z,100868.80
2018-09-24T20:51:17.264Z,100876.69
2018-09-24T20:53:51.744Z,100870.08
2018-09-24T20:56:26.643Z,100861.75
2018-09-24T20:59:00.786Z,100862.61
2018-09-24T21:01:34.596Z,100872.60
2018-09-24T21:04:09.603Z,100871.67
2018-09-24T21:06:43.521Z,100869.50
2018-09-24T21:09:17.666Z,100886.11
2018-09-24T21:11:51.452Z,100895.61
2018-09-24T21:14:26.402Z,100884.28
2018-09-24T21:17:00.305Z,100887.37
2018-09-24T21:19:34.207Z,100888.68
2018-09-24T21:22:08.041Z,100892.61
2018-09-24T21:24:41.922Z,100885.63
2018-09-24T21:27:15.792Z,100890.94
2018-09-24T21:29:49.835Z,100889.67
2018-09-24T21:32:23.711Z,100899.30
2018-09-24T21:34:57.777Z,100905.86
2018-09-24T21:37:31.483Z,100899.30
2018-09-24T21:40:05.467Z,100896.73
2018-09-24T21:42:39.422Z,100901.16
2018-09-24T21:45:13.532Z,100902.09
2018-09-24T21:47:47.313Z,100900.41
2018-09-24T21:50:21.458Z,100904.82
2018-09-24T21:52:55.355Z,100903.96
2018-09-24T21:55:29.786Z,100910.12
2018-09-24T21:58:03.595Z,100901.47
2018-09-24T22:00:37.362Z,100921.12
2018-09-24T22:03:12.053Z,100925.88
2018-09-24T22:05:46.126Z,100927.18
2018-09-24T22:08:20.105Z,100926.80
2018-09-24T22:10:55.377Z,100938.09
2018-09-24T22:13:29.089Z,100935.88
2018-09-24T22:16:02.770Z,100945.91
2018-09-24T22:18:36.576Z,100943.22
2018-09-24T22:21:12.059Z,100947.13
2018-09-24T22:23:46.093Z,100938.80
2018-09-24T22:26:19.945Z,100945.77
2018-09-24T22:28:53.946Z,100950.57
2018-09-24T22:31:27.878Z,100957.56
2018-09-24T22:34:01.574Z,100973.74
2018-09-24T22:36:35.796Z,100968.52
2018-09-24T22:39:10.400Z,100968.56
2018-09-24T22:41:44.448Z,100971.27
2018-09-24T22:44:18.348Z,100979.16
2018-09-24T22:46:52.454Z,100985.28
2018-09-24T22:49:27.375Z,100984.84
2018-09-24T22:52:01.399Z,100985.64
2018-09-24T22:54:35.107Z,100984.32
2018-09-24T22:57:10.195Z,100979.05
2018-09-24T22:59:43.945Z,100982.52
2018-09-24T23:02:17.775Z,100981.21
2018-09-24T23:04:52.596Z,100981.65
2018-09-24T23:07:27.701Z,100981.64
2018-09-24T23:10:01.428Z,100980.80
2018-09-24T23:12:35.460Z,100983.45
2018-09-24T23:15:09.463Z,100984.38
2018-09-24T23:17:43.360Z,100997.95
2018-09-24T23:20:18.364Z,101004.95
2018-09-24T23:22:53.511Z,101000.17
2018-09-24T23:25:27.359Z,101006.32
2018-09-24T23:28:01.269Z,101009.84
2018-09-24T23:30:37.476Z,101018.20
2018-09-24T23:33:11.534Z,101017.79
2018-09-24T23:35:45.317Z,101014.74
2018-09-24T23:38:19.410Z,101013.84
2018-09-24T23:40:54.217Z,101016.91
2018-09-24T23:43:28.292Z,101017.34
2018-09-24T23:46:02.007Z,101012.56
2018-09-24T23:48:36.216Z,101014.31
2018-09-24T23:51:11.188Z,101023.48
2018-09-24T23:53:45.293Z,101015.59
2018-09-24T23:56:19.274Z,101022.16
2018-09-24T23:58:53.298Z,101022.61
